Main page
METAR-TAF:

METAR-TAF

Airports :

Raton Municipal Airport

Raton, New Mexico, United States

latitude: 36-44-31N, longitude: 104-39-28W, elevation: 6347 ft

Current weather observation

The report was made 1 hour and 14 minutes ago, at 11:53 UTC
Wind 3 mph from the North/Northeast
Temperature 19°F
Humidity 79%
Pressure 30.22 in. Hg
Visibility: 10 miles
Clear sky

METAR: KRTN 211153Z AUTO 03003KT 10SM CLR M07/M10 A3022 RMK AO2 SLP244 T10721100 11044 21072 56004

Time: 06:07 (13:07 UTC)


TAF: missing

Weather observations and forecasts of more than 4000 airports (METAR and TAF reports).

The available stations are represented by yellow and red dots on the map.

Hover mouse over dot to see the name of the station.

Then click to see weather observations and forecasts.

To change the map : click on the green buttons with a black cross to zoom in, on the green button with a dash to zoom out, or on the green arrows for adjacent maps.


METAR-TAF: